Time;durP1;ratioP1;P1;durP2;ratioP2;P2;SDS_P1;SDS_P2;PMS_P1;PMS_P2;Temp;Humidity;BMP_temperature;BMP_pressure;BME280_temperature;BME280_humidity;BME280_pressure;Samples;Min_cycle;Max_cycle;Signal;HPM_P1;HPM_P2
2022/08/05 00:02:04;;;;;;;1150.63;999.90;;;27.00;99.90;;;;;;5090241;28;20984;-84
2022/08/05 00:04:31;;;;;;;1156.13;999.90;;;27.00;99.90;;;;;;5088086;28;20458;-82
2022/08/05 00:06:57;;;;;;;1153.40;999.90;;;27.00;99.90;;;;;;5093892;28;20788;-83
2022/08/05 00:09:24;;;;;;;1149.43;999.90;;;27.00;99.90;;;;;;5087387;28;20485;-81
2022/08/05 00:11:51;;;;;;;1142.13;999.90;;;26.90;99.90;;;;;;5087875;28;20455;-82
2022/08/05 00:14:19;;;;;;;1149.07;999.90;;;26.90;99.90;;;;;;5087888;28;20457;-82
2022/08/05 00:16:46;;;;;;;1132.93;999.90;;;26.90;99.90;;;;;;5087883;28;20465;-83
2022/08/05 00:19:13;;;;;;;1144.20;999.90;;;26.90;99.90;;;;;;5085771;28;20479;-84
2022/08/05 00:21:39;;;;;;;1148.47;999.90;;;26.80;99.90;;;;;;5093122;28;20486;-82
2022/08/05 00:24:07;;;;;;;1138.77;999.90;;;26.80;99.90;;;;;;5089555;28;20464;-81
2022/08/05 00:26:33;;;;;;;1129.27;999.90;;;26.80;99.90;;;;;;5090803;28;20459;-81
2022/08/05 00:29:00;;;;;;;1149.27;999.90;;;26.70;99.90;;;;;;5083885;28;20464;-81
2022/08/05 00:31:28;;;;;;;1155.60;999.90;;;26.70;99.90;;;;;;5091445;28;20454;-82
2022/08/05 00:33:55;;;;;;;1136.07;999.90;;;26.70;99.90;;;;;;5086376;28;20459;-82
2022/08/05 00:36:23;;;;;;;1131.37;999.90;;;26.70;99.90;;;;;;5085512;28;20474;-83
2022/08/05 00:38:50;;;;;;;1129.90;999.90;;;26.60;99.90;;;;;;5092381;28;20467;-84
2022/08/05 00:41:28;;;;;;;1139.97;999.90;;;26.60;99.90;;;;;;5090726;28;20989;-83
2022/08/05 00:43:54;;;;;;;1138.00;999.90;;;26.60;99.90;;;;;;5088091;28;20482;-83
2022/08/05 00:46:21;;;;;;;1127.90;999.90;;;26.60;99.90;;;;;;5088151;28;20455;-83
2022/08/05 00:48:49;;;;;;;1140.03;999.90;;;26.60;99.90;;;;;;5092225;28;20938;-84
2022/08/05 00:51:16;;;;;;;1132.53;999.90;;;26.50;99.90;;;;;;5090814;28;20468;-84
2022/08/05 00:53:43;;;;;;;1147.17;999.90;;;26.50;99.90;;;;;;5091159;28;20455;-82
2022/08/05 00:56:10;;;;;;;1149.80;999.90;;;26.40;99.90;;;;;;5090316;28;20831;-83
2022/08/05 00:58:37;;;;;;;1137.20;999.90;;;26.50;99.90;;;;;;5086122;28;20972;-83
2022/08/05 01:01:04;;;;;;;1132.80;999.90;;;26.40;99.90;;;;;;5090836;28;20496;-83
2022/08/05 01:03:31;;;;;;;1141.70;999.90;;;26.40;99.90;;;;;;5086337;28;21121;-83
2022/08/05 01:05:59;;;;;;;1140.23;999.90;;;26.40;99.90;;;;;;5082982;28;20439;-83
2022/08/05 01:08:26;;;;;;;1128.77;999.90;;;26.40;99.90;;;;;;5091976;28;20451;-81
2022/08/05 01:10:56;;;;;;;1125.97;999.90;;;26.30;99.90;;;;;;5091253;28;20447;-82
2022/08/05 01:13:31;;;;;;;1135.77;999.90;;;26.30;99.90;;;;;;5087047;28;20460;-81
2022/08/05 01:16:01;;;;;;;1113.80;999.90;;;26.20;99.90;;;;;;5087237;28;20459;-82
2022/08/05 01:18:33;;;;;;;1128.03;999.90;;;26.20;99.90;;;;;;5089173;28;20480;-81
2022/08/05 01:21:12;;;;;;;1119.07;999.90;;;26.20;99.90;;;;;;5089116;28;20977;-81
2022/08/05 01:23:55;;;;;;;1121.23;999.90;;;26.20;99.90;;;;;;5090988;28;20957;-82
2022/08/05 01:26:36;;;;;;;1120.67;999.90;;;26.10;99.90;;;;;;5091428;28;20448;-82
2022/08/05 01:29:10;;;;;;;1129.00;999.90;;;26.10;99.90;;;;;;5083704;28;20863;-83
2022/08/05 01:31:41;;;;;;;1122.03;999.90;;;26.10;99.90;;;;;;5090688;28;20450;-82
2022/08/05 01:34:13;;;;;;;1129.13;999.90;;;26.10;99.90;;;;;;5086515;28;20451;-82
2022/08/05 01:36:44;;;;;;;1123.33;999.90;;;26.10;99.90;;;;;;5084854;28;20467;-82
2022/08/05 01:39:12;;;;;;;1108.63;999.90;;;26.00;99.90;;;;;;5083596;28;20490;-82
2022/08/05 01:41:40;;;;;;;1115.63;999.90;;;26.00;99.90;;;;;;5089956;28;20480;-81
2022/08/05 01:44:10;;;;;;;1116.90;999.90;;;25.90;99.90;;;;;;5089906;28;20467;-82
2022/08/05 01:46:38;;;;;;;1124.77;999.90;;;25.90;99.90;;;;;;5088204;28;20448;-81
2022/08/05 01:49:05;;;;;;;1117.23;999.90;;;25.90;99.90;;;;;;5078202;28;21982;-81
2022/08/05 01:51:35;;;;;;;1125.83;999.90;;;25.90;99.90;;;;;;5086718;28;20461;-81
2022/08/05 01:54:04;;;;;;;1108.23;999.90;;;25.90;99.90;;;;;;5090136;28;20811;-81
2022/08/05 01:56:34;;;;;;;1109.70;999.90;;;25.80;99.90;;;;;;5089782;28;20543;-80
2022/08/05 01:59:04;;;;;;;1118.27;999.90;;;25.80;99.90;;;;;;5091698;28;20983;-81
2022/08/05 02:01:34;;;;;;;1111.77;999.90;;;25.80;99.90;;;;;;5087069;28;20491;-80
2022/08/05 02:04:02;;;;;;;1106.03;999.90;;;25.80;99.90;;;;;;5082695;28;20452;-78
2022/08/05 02:06:29;;;;;;;1105.07;999.90;;;25.70;99.90;;;;;;5089928;28;20488;-80
2022/08/05 02:08:57;;;;;;;1122.37;999.90;;;25.70;99.90;;;;;;5090662;28;20452;-81
2022/08/05 02:11:24;;;;;;;1103.00;999.90;;;25.70;99.90;;;;;;5081213;28;20458;-78
2022/08/05 02:13:55;;;;;;;1112.07;999.90;;;25.70;99.90;;;;;;5089511;28;20913;-80
2022/08/05 02:16:25;;;;;;;1108.03;999.90;;;25.60;99.90;;;;;;5090053;28;20926;-80
2022/08/05 02:18:58;;;;;;;1113.47;999.90;;;25.60;99.90;;;;;;5085760;28;20483;-80
2022/08/05 02:21:30;;;;;;;1105.47;999.90;;;25.60;99.90;;;;;;5088503;28;20480;-82
2022/08/05 02:24:03;;;;;;;1114.67;999.90;;;25.60;99.90;;;;;;5086078;28;20464;-79
2022/08/05 02:26:38;;;;;;;1095.53;998.63;;;25.50;99.90;;;;;;5085408;28;20451;-80
2022/08/05 02:29:07;;;;;;;1110.90;999.90;;;25.50;99.90;;;;;;5087542;28;20462;-80
2022/08/05 02:31:35;;;;;;;1117.40;999.90;;;25.50;99.90;;;;;;5086428;28;20508;-80
2022/08/05 02:34:07;;;;;;;1103.70;999.90;;;25.50;99.90;;;;;;5089387;28;20459;-81
2022/08/05 02:36:36;;;;;;;1100.13;999.90;;;25.50;99.90;;;;;;5081518;28;20565;-82
2022/08/05 02:39:04;;;;;;;1101.97;999.90;;;25.50;99.90;;;;;;5088222;28;20455;-81
2022/08/05 02:41:33;;;;;;;1115.87;999.90;;;25.40;99.90;;;;;;5085657;28;20490;-81
2022/08/05 02:44:01;;;;;;;1096.10;999.53;;;25.40;99.90;;;;;;5088024;28;21026;-81
2022/08/05 02:46:29;;;;;;;1093.87;998.80;;;25.40;99.90;;;;;;5089735;28;20451;-82
2022/08/05 02:48:56;;;;;;;1118.73;999.90;;;25.40;99.90;;;;;;5086260;28;20456;-82
2022/08/05 02:51:26;;;;;;;1094.37;998.90;;;25.30;99.90;;;;;;5092078;28;20436;-89
2022/08/05 02:53:54;;;;;;;1096.97;999.77;;;25.30;99.90;;;;;;5091312;28;20459;-88
2022/08/05 02:56:21;;;;;;;1112.57;999.90;;;25.30;99.90;;;;;;5091852;28;20952;-90
2022/08/05 02:58:49;;;;;;;1097.63;999.90;;;25.30;99.90;;;;;;5088798;28;20534;-87
2022/08/05 03:01:19;;;;;;;1098.63;999.90;;;25.30;99.90;;;;;;5087309;28;20477;-90
2022/08/05 03:03:50;;;;;;;1103.17;999.90;;;25.30;99.90;;;;;;5086635;28;20456;-87
2022/08/05 03:06:19;;;;;;;1092.00;998.23;;;25.20;99.90;;;;;;5091966;28;20483;-90
2022/08/05 03:08:48;;;;;;;1103.97;999.90;;;25.20;99.90;;;;;;5085939;28;20448;-88
2022/08/05 03:11:18;;;;;;;1091.57;998.07;;;25.20;99.90;;;;;;5084431;28;21000;-86
2022/08/05 03:13:45;;;;;;;1088.43;997.57;;;25.20;99.90;;;;;;5085692;28;20463;-89
2022/08/05 03:16:13;;;;;;;1093.10;998.53;;;25.20;99.90;;;;;;5090390;28;20455;-90
2022/08/05 03:18:40;;;;;;;1107.47;999.90;;;25.10;99.90;;;;;;5087931;28;20486;-84
2022/08/05 03:21:07;;;;;;;1089.17;996.63;;;25.10;99.90;;;;;;5089046;28;20452;-85
2022/08/05 03:23:35;;;;;;;1088.53;996.33;;;25.10;99.90;;;;;;5084404;28;20464;-84
2022/08/05 03:26:04;;;;;;;1093.73;998.77;;;25.10;99.90;;;;;;5086499;28;20969;-86
2022/08/05 03:28:31;;;;;;;1089.50;996.20;;;25.10;99.90;;;;;;5089811;28;20470;-84
2022/08/05 03:30:59;;;;;;;1087.80;995.80;;;25.10;99.90;;;;;;5093617;28;20801;-86
2022/08/05 03:33:27;;;;;;;1092.83;998.43;;;25.00;99.90;;;;;;5088603;28;20447;-89
2022/08/05 03:35:55;;;;;;;1088.30;996.60;;;25.00;99.90;;;;;;5089420;28;20454;-82
2022/08/05 03:38:22;;;;;;;1093.97;999.00;;;25.00;99.90;;;;;;5089603;28;20459;-89
2022/08/05 03:40:51;;;;;;;1088.83;996.90;;;25.00;99.90;;;;;;5089308;28;20458;-87
2022/08/05 03:43:20;;;;;;;1083.70;992.57;;;25.00;99.90;;;;;;5089118;28;20536;-84
2022/08/05 03:45:46;;;;;;;1093.17;998.73;;;24.90;99.90;;;;;;5088943;28;20452;-82
2022/08/05 03:48:13;;;;;;;1094.50;999.13;;;24.90;99.90;;;;;;5086333;28;20579;-84
2022/08/05 03:50:48;;;;;;;1074.10;984.10;;;24.90;99.90;;;;;;5087346;28;22427;-88
2022/08/05 03:53:21;;;;;;;1082.40;991.73;;;24.90;99.90;;;;;;5083204;28;20454;-89
2022/08/05 03:55:53;;;;;;;1080.65;990.03;;;24.90;99.90;;;;;;5085625;28;20459;-84
2022/08/05 03:58:24;;;;;;;1071.03;981.03;;;24.90;99.90;;;;;;5084831;28;20213;-83
2022/08/05 04:00:52;;;;;;;1079.80;989.40;;;24.80;99.90;;;;;;5087428;28;20455;-82
2022/08/05 04:03:21;;;;;;;1072.17;982.13;;;24.80;99.90;;;;;;5086410;28;20678;-82
2022/08/05 04:05:49;;;;;;;1082.67;992.43;;;24.80;99.90;;;;;;5089263;28;20448;-85
2022/08/05 04:08:17;;;;;;;1078.53;988.67;;;24.80;99.90;;;;;;5089199;28;20452;-84
2022/08/05 04:10:45;;;;;;;1084.10;993.80;;;24.80;99.90;;;;;;5087844;28;20467;-84
2022/08/05 04:13:12;;;;;;;1081.53;991.37;;;24.70;99.90;;;;;;5083024;28;20456;-83
2022/08/05 04:15:40;;;;;;;1080.57;990.27;;;24.70;99.90;;;;;;5082100;28;20466;-83
2022/08/05 04:18:07;;;;;;;1073.57;983.47;;;24.70;99.90;;;;;;5084942;28;21002;-82
2022/08/05 04:20:34;;;;;;;1077.70;987.58;;;24.70;99.90;;;;;;5090394;28;20455;-84
2022/08/05 04:23:01;;;;;;;1064.50;975.10;;;24.60;99.90;;;;;;5092577;28;20225;-82
2022/08/05 04:25:27;;;;;;;1064.43;974.73;;;24.60;99.90;;;;;;5090702;28;20455;-83
2022/08/05 04:27:54;;;;;;;1082.30;992.03;;;24.60;99.90;;;;;;5089919;28;20588;-83
2022/08/05 04:30:21;;;;;;;1086.73;995.40;;;24.60;99.90;;;;;;5092260;28;20467;-82
2022/08/05 04:32:49;;;;;;;1072.87;983.57;;;24.60;99.90;;;;;;5090580;28;20444;-81
2022/08/05 04:35:15;;;;;;;1088.87;996.97;;;24.50;99.90;;;;;;5089807;28;20463;-81
2022/08/05 04:37:42;;;;;;;1073.83;984.57;;;24.50;99.90;;;;;;5092730;28;20466;-82
2022/08/05 04:40:11;;;;;;;1081.43;991.03;;;24.50;99.90;;;;;;5090018;28;20528;-81
2022/08/05 04:42:37;;;;;;;1078.53;988.13;;;24.50;99.90;;;;;;5087063;28;20493;-82
2022/08/05 04:45:05;;;;;;;1067.95;977.95;;;24.50;99.90;;;;;;5087595;28;20462;-83
2022/08/05 04:47:32;;;;;;;1065.22;975.35;;;24.40;99.90;;;;;;5093149;28;20643;-81
2022/08/05 04:50:00;;;;;;;1068.88;978.15;;;24.40;99.90;;;;;;5085115;28;20205;-84
2022/08/05 04:52:26;;;;;;;1073.38;983.55;;;24.40;99.90;;;;;;5092958;28;20181;-84
2022/08/05 04:54:53;;;;;;;1061.72;972.17;;;24.40;99.90;;;;;;5091286;28;20671;-81
2022/08/05 04:57:20;;;;;;;1064.07;974.13;;;24.40;99.90;;;;;;5087739;28;20213;-84
2022/08/05 04:59:46;;;;;;;1072.47;982.53;;;24.40;99.90;;;;;;5089383;28;20284;-83
2022/08/05 05:02:13;;;;;;;1067.20;977.55;;;24.30;99.90;;;;;;5089339;28;20688;-82
2022/08/05 05:04:40;;;;;;;1063.97;974.22;;;24.30;99.90;;;;;;5088082;28;20209;-82
2022/08/05 05:07:09;;;;;;;1057.22;967.60;;;24.30;99.90;;;;;;5092234;28;20197;-83
2022/08/05 05:09:36;;;;;;;1048.88;959.55;;;24.30;99.90;;;;;;5090471;28;20197;-80
2022/08/05 05:12:03;;;;;;;1052.83;963.63;;;24.30;99.90;;;;;;5086761;28;20194;-80
2022/08/05 05:14:29;;;;;;;1055.18;965.75;;;24.30;99.90;;;;;;5089520;28;20452;-81
2022/08/05 05:16:56;;;;;;;1064.83;975.07;;;24.30;99.90;;;;;;5091164;28;20202;-83
2022/08/05 05:19:23;;;;;;;1060.15;970.65;;;24.20;99.90;;;;;;5085996;28;20820;-80
2022/08/05 05:21:49;;;;;;;1063.13;973.42;;;24.20;99.90;;;;;;5089066;28;20208;-81
2022/08/05 05:24:20;;;;;;;1060.53;971.00;;;24.20;99.90;;;;;;5092638;28;20621;-81
2022/08/05 05:26:47;;;;;;;1061.13;971.75;;;24.20;99.90;;;;;;5083781;28;20194;-81
2022/08/05 05:29:13;;;;;;;1058.47;969.20;;;24.20;99.90;;;;;;5086161;28;20211;-82
2022/08/05 05:31:40;;;;;;;1058.30;969.10;;;24.20;99.90;;;;;;5089309;28;20209;-82
2022/08/05 05:34:07;;;;;;;1056.97;967.73;;;24.10;99.90;;;;;;5086762;28;20456;-83
2022/08/05 05:36:34;;;;;;;1047.30;958.17;;;24.10;99.90;;;;;;5092646;28;20468;-82
2022/08/05 05:39:00;;;;;;;1066.82;977.00;;;24.10;99.90;;;;;;5089941;28;20460;-82
2022/08/05 05:41:29;;;;;;;1056.03;966.87;;;24.10;99.90;;;;;;5090628;28;20205;-81
2022/08/05 05:43:55;;;;;;;1052.88;963.75;;;24.10;99.90;;;;;;5088376;28;20578;-82
2022/08/05 05:46:22;;;;;;;1062.93;973.30;;;24.10;99.90;;;;;;5089358;28;20533;-82
2022/08/05 05:48:49;;;;;;;1047.70;958.78;;;24.00;99.90;;;;;;5088600;28;20197;-82
2022/08/05 05:51:22;;;;;;;1047.93;958.97;;;24.00;99.90;;;;;;5089675;28;20190;-82
2022/08/05 05:53:51;;;;;;;1054.03;964.55;;;24.00;99.90;;;;;;5089859;28;20344;-82
2022/08/05 05:56:19;;;;;;;1045.07;955.85;;;24.00;99.90;;;;;;5083982;28;20556;-83
2022/08/05 05:58:47;;;;;;;1062.35;972.58;;;24.00;99.90;;;;;;5089628;28;20663;-83
2022/08/05 06:01:14;;;;;;;1047.63;958.50;;;23.90;99.90;;;;;;5089339;28;20205;-84
2022/08/05 06:03:41;;;;;;;1050.80;961.58;;;24.00;99.90;;;;;;5088746;28;20218;-83
2022/08/05 06:06:08;;;;;;;1044.47;955.65;;;23.90;99.90;;;;;;5093874;28;20196;-83
2022/08/05 06:08:35;;;;;;;1046.65;957.72;;;23.90;99.90;;;;;;5092262;28;20204;-82
2022/08/05 06:11:02;;;;;;;1047.47;958.70;;;23.90;99.90;;;;;;5092963;28;20198;-84
2022/08/05 06:13:29;;;;;;;1042.68;953.80;;;23.90;99.90;;;;;;5097167;28;20197;-83
2022/08/05 06:15:57;;;;;;;1034.80;946.03;;;23.90;99.90;;;;;;5092079;28;20259;-85
2022/08/05 06:18:24;;;;;;;1062.20;972.10;;;23.90;99.90;;;;;;5083904;28;20232;-83
2022/08/05 06:20:50;;;;;;;1050.47;961.40;;;23.90;99.90;;;;;;5089643;28;20281;-84
2022/08/05 06:23:17;;;;;;;1032.13;943.78;;;23.80;99.90;;;;;;5089943;28;20225;-83
2022/08/05 06:25:44;;;;;;;1045.95;957.22;;;23.80;99.90;;;;;;5089538;28;20194;-83
2022/08/05 06:28:10;;;;;;;1037.80;949.25;;;23.80;99.90;;;;;;5090743;28;20201;-83
2022/08/05 06:30:37;;;;;;;1049.70;960.63;;;23.80;99.90;;;;;;5079176;28;20200;-84
2022/08/05 06:33:06;;;;;;;1030.47;942.15;;;23.80;99.90;;;;;;5087823;28;20284;-84
2022/08/05 06:35:32;;;;;;;1041.88;952.55;;;23.80;99.90;;;;;;5088086;28;20197;-84
2022/08/05 06:37:59;;;;;;;1039.07;950.25;;;23.80;99.90;;;;;;5089647;28;20296;-84
2022/08/05 06:40:26;;;;;;;1061.22;971.25;;;23.70;99.90;;;;;;5087068;28;20229;-83
2022/08/05 06:42:52;;;;;;;1049.05;959.58;;;23.70;99.90;;;;;;5084827;28;20224;-84
2022/08/05 06:45:20;;;;;;;1051.18;961.67;;;23.70;99.90;;;;;;5084715;28;20202;-85
2022/08/05 06:47:47;;;;;;;1045.18;956.13;;;23.70;99.90;;;;;;5090898;28;20193;-84
2022/08/05 06:50:15;;;;;;;1036.50;947.88;;;23.70;99.90;;;;;;5085461;28;20197;-83
2022/08/05 06:52:42;;;;;;;1044.07;955.28;;;23.70;99.90;;;;;;5078723;28;20576;-83
2022/08/05 06:55:09;;;;;;;1045.45;956.58;;;23.70;99.90;;;;;;5087559;28;20205;-84
2022/08/05 06:57:36;;;;;;;1045.82;957.00;;;23.70;99.90;;;;;;5086196;28;20652;-85
2022/08/05 07:00:03;;;;;;;1039.53;952.47;;;23.70;99.90;;;;;;5090708;28;20200;-84
2022/08/05 07:02:30;;;;;;;1037.88;950.22;;;23.60;99.90;;;;;;5082852;28;20198;-85
2022/08/05 07:04:56;;;;;;;1055.10;969.00;;;23.60;99.90;;;;;;5088159;28;20664;-86
2022/08/05 07:07:24;;;;;;;1040.13;955.70;;;23.60;99.90;;;;;;5087040;28;20233;-85
2022/08/05 07:09:51;;;;;;;1035.78;951.22;;;23.60;99.90;;;;;;5087182;28;20470;-84
2022/08/05 07:17:43;;;;;;;1050.93;965.92;;;23.50;99.90;;;;;;5084572;28;20712;-83
2022/08/05 07:20:10;;;;;;;1039.63;958.83;;;23.50;99.90;;;;;;5087502;28;20315;-83
2022/08/05 07:22:38;;;;;;;1040.50;959.72;;;23.50;99.90;;;;;;5089374;28;20217;-84
2022/08/05 07:25:07;;;;;;;1042.10;960.83;;;23.50;99.90;;;;;;5085445;28;20201;-85
2022/08/05 07:27:33;;;;;;;1041.07;959.53;;;23.40;99.90;;;;;;5082624;28;20191;-84
2022/08/05 07:30:00;;;;;;;1047.70;964.55;;;23.40;99.90;;;;;;5090764;28;20669;-83
2022/08/05 07:32:27;;;;;;;1034.25;950.20;;;23.40;99.90;;;;;;5086637;28;20557;-84
2022/08/05 07:34:53;;;;;;;1040.60;956.50;;;23.40;99.90;;;;;;5083788;28;20202;-83
2022/08/05 07:37:20;;;;;;;1036.07;951.83;;;23.40;99.90;;;;;;5089103;28;20200;-80
2022/08/05 07:39:48;;;;;;;1031.03;946.95;;;23.40;99.90;;;;;;5089364;28;20193;-83
2022/08/05 07:42:15;;;;;;;1050.45;965.60;;;23.30;99.90;;;;;;5088055;28;20579;-79
2022/08/05 07:44:41;;;;;;;1035.15;950.78;;;23.30;99.90;;;;;;5084894;28;20225;-80
2022/08/05 07:47:08;;;;;;;1039.22;954.63;;;23.30;99.90;;;;;;5087720;28;20201;-79
2022/08/05 07:49:35;;;;;;;1041.32;956.22;;;23.30;99.90;;;;;;5084706;28;20221;-79
2022/08/05 07:52:02;;;;;;;1031.85;947.05;;;23.30;99.90;;;;;;5087747;28;20261;-79
2022/08/05 07:54:28;;;;;;;1048.50;963.95;;;23.30;99.90;;;;;;5090812;28;20216;-79
2022/08/05 07:56:56;;;;;;;1035.13;950.72;;;23.30;99.90;;;;;;5091887;28;20193;-79
2022/08/05 07:59:23;;;;;;;1028.25;944.33;;;23.30;99.90;;;;;;5088657;28;20204;-80
2022/08/05 08:01:50;;;;;;;1035.93;952.05;;;23.30;99.90;;;;;;5091043;28;20660;-79
2022/08/05 08:04:16;;;;;;;1026.88;943.20;;;23.30;99.90;;;;;;5090178;28;20221;-80
2022/08/05 08:06:44;;;;;;;1029.18;945.03;;;23.20;99.90;;;;;;5092269;28;20197;-80
2022/08/05 08:09:11;;;;;;;1031.57;947.17;;;23.20;99.90;;;;;;5091804;28;20251;-80
2022/08/05 08:11:38;;;;;;;1036.47;951.45;;;23.20;99.90;;;;;;5091204;28;20741;-80
2022/08/05 08:14:06;;;;;;;1031.38;946.60;;;23.20;99.90;;;;;;5090151;28;20194;-79
2022/08/05 08:16:32;;;;;;;1017.75;930.03;;;23.20;99.90;;;;;;5089011;28;20201;-79
2022/08/05 08:18:59;;;;;;;1022.47;934.03;;;23.10;99.90;;;;;;5089705;28;20598;-80
2022/08/05 08:21:26;;;;;;;1021.47;933.60;;;23.20;99.90;;;;;;5091672;28;20197;-79
2022/08/05 08:23:52;;;;;;;1027.70;939.53;;;23.10;99.90;;;;;;5091754;28;20213;-80
2022/08/05 08:26:19;;;;;;;1019.33;931.53;;;23.10;99.90;;;;;;5090339;28;20198;-79
2022/08/05 08:28:46;;;;;;;1016.35;928.33;;;23.10;99.90;;;;;;5091319;28;20637;-79
2022/08/05 08:31:14;;;;;;;1020.70;932.55;;;23.10;99.90;;;;;;5091229;28;20198;-79
2022/08/05 08:33:41;;;;;;;1015.92;927.85;;;23.10;99.90;;;;;;5088690;28;20189;-79
2022/08/05 08:36:08;;;;;;;1015.75;927.97;;;23.10;99.90;;;;;;5088587;28;20197;-80
2022/08/05 08:38:35;;;;;;;1022.53;934.22;;;23.10;99.90;;;;;;5085972;28;20198;-79
2022/08/05 08:41:06;;;;;;;1018.20;930.13;;;23.10;99.90;;;;;;5087162;28;20217;-80
2022/08/05 08:43:34;;;;;;;1012.00;923.97;;;23.10;99.90;;;;;;5089908;28;20217;-78
2022/08/05 08:46:04;;;;;;;1014.10;927.72;;;23.10;99.90;;;;;;5089680;28;20216;-80
2022/08/05 08:48:33;;;;;;;1012.25;926.95;;;23.00;99.90;;;;;;5085182;28;20193;-80
2022/08/05 08:51:00;;;;;;;1010.55;925.58;;;23.00;99.90;;;;;;5089329;28;20202;-80
2022/08/05 08:53:35;;;;;;;1017.83;932.53;;;23.00;99.90;;;;;;5090066;28;20190;-79
2022/08/05 08:56:03;;;;;;;1009.75;924.45;;;23.00;99.90;;;;;;5082130;28;20197;-80
2022/08/05 08:58:31;;;;;;;1023.58;937.42;;;23.00;99.90;;;;;;5090046;28;20194;-80
2022/08/05 09:00:58;;;;;;;1016.88;930.55;;;23.00;99.90;;;;;;5086558;28;20210;-80
2022/08/05 09:03:25;;;;;;;1024.88;937.97;;;23.00;99.90;;;;;;5087834;28;20210;-83
2022/08/05 09:05:53;;;;;;;1017.50;930.40;;;22.90;99.90;;;;;;5087657;28;20197;-82
2022/08/05 09:08:22;;;;;;;1011.67;924.35;;;22.90;99.90;;;;;;5089571;28;20205;-82
2022/08/05 09:10:50;;;;;;;1011.03;923.28;;;22.90;99.90;;;;;;5090519;28;20557;-82
2022/08/05 09:13:18;;;;;;;1017.63;929.88;;;22.90;99.90;;;;;;5084079;28;20666;-82
2022/08/05 09:15:45;;;;;;;1011.33;923.75;;;22.90;99.90;;;;;;5081984;28;20605;-83
2022/08/05 09:18:12;;;;;;;1012.03;924.25;;;22.90;99.90;;;;;;5084915;28;20727;-83
2022/08/05 09:20:40;;;;;;;1004.65;916.95;;;22.90;99.90;;;;;;5089057;28;20193;-82
2022/08/05 09:23:13;;;;;;;1013.58;925.80;;;22.90;99.90;;;;;;5089184;28;20193;-83
2022/08/05 09:25:41;;;;;;;1003.97;916.50;;;22.90;99.90;;;;;;5086754;28;20197;-83
2022/08/05 09:28:14;;;;;;;1007.42;920.22;;;22.90;99.90;;;;;;5086390;28;20655;-81
2022/08/05 09:30:51;;;;;;;998.42;911.30;;;22.80;99.90;;;;;;5088096;28;20201;-82
2022/08/05 09:33:18;;;;;;;1002.70;915.45;;;22.80;99.90;;;;;;5086295;28;20201;-83
2022/08/05 09:35:55;;;;;;;999.30;912.67;;;22.80;99.90;;;;;;5085870;28;20208;-83
2022/08/05 09:38:23;;;;;;;1014.40;927.00;;;22.80;99.90;;;;;;5084649;28;20200;-82
2022/08/05 09:40:50;;;;;;;1013.90;926.50;;;22.80;99.90;;;;;;5084217;28;20286;-83
2022/08/05 09:43:27;;;;;;;996.13;909.35;;;22.80;99.90;;;;;;5084965;28;20205;-83
2022/08/05 09:45:54;;;;;;;1011.80;926.20;;;22.80;99.90;;;;;;5080213;28;20189;-83
2022/08/05 09:48:24;;;;;;;1004.30;918.65;;;22.80;99.90;;;;;;5084635;28;20190;-82
2022/08/05 09:50:52;;;;;;;1008.58;921.92;;;22.80;99.90;;;;;;5083214;28;20194;-82
2022/08/05 09:53:19;;;;;;;1004.55;917.47;;;22.80;99.90;;;;;;5088766;28;20201;-83
2022/08/05 09:55:52;;;;;;;1003.05;915.88;;;22.80;99.90;;;;;;5088833;28;20198;-83
2022/08/05 09:58:19;;;;;;;994.45;907.42;;;22.70;99.90;;;;;;5085695;28;20205;-83
2022/08/05 10:00:59;;;;;;;1000.28;912.88;;;22.80;99.90;;;;;;5085994;28;20198;-83
2022/08/05 10:03:26;;;;;;;990.80;904.08;;;22.70;99.90;;;;;;5087917;28;20207;-83
2022/08/05 10:06:04;;;;;;;991.42;904.55;;;22.80;99.90;;;;;;5090035;28;20549;-82
2022/08/05 10:08:31;;;;;;;1000.00;912.80;;;22.70;99.90;;;;;;5090520;28;20430;-82
2022/08/05 10:10:59;;;;;;;988.95;902.40;;;22.80;99.90;;;;;;5087429;28;20576;-82
2022/08/05 10:13:29;;;;;;;987.85;901.15;;;22.70;99.90;;;;;;5078798;28;20201;-82
2022/08/05 10:15:57;;;;;;;996.05;909.17;;;22.80;99.90;;;;;;5073386;28;20666;-82
2022/08/05 10:18:26;;;;;;;990.20;903.70;;;22.80;99.90;;;;;;5086159;28;20340;-83
2022/08/05 10:20:54;;;;;;;990.80;903.90;;;22.80;99.90;;;;;;5087413;28;20204;-83
2022/08/05 10:23:23;;;;;;;1010.03;922.58;;;22.70;99.90;;;;;;5089420;28;20575;-83
2022/08/05 10:25:50;;;;;;;1011.83;924.58;;;22.70;99.90;;;;;;5086230;28;20193;-83
2022/08/05 10:28:20;;;;;;;992.60;906.28;;;22.70;99.90;;;;;;5086375;28;20290;-84
2022/08/05 10:30:47;;;;;;;998.83;912.15;;;22.70;99.90;;;;;;5085924;28;20576;-83
2022/08/05 10:33:14;;;;;;;1005.25;918.85;;;22.70;99.90;;;;;;5087527;28;20959;-83
2022/08/05 10:35:41;;;;;;;1002.58;916.72;;;22.70;99.90;;;;;;5088040;28;20190;-84
2022/08/05 10:38:08;;;;;;;1006.13;920.30;;;22.70;99.90;;;;;;5086731;28;20201;-84
2022/08/05 10:40:38;;;;;;;1004.72;919.25;;;22.70;99.90;;;;;;5088816;28;20193;-84
2022/08/05 10:43:12;;;;;;;997.38;912.38;;;22.70;99.90;;;;;;5081685;28;20208;-84
2022/08/05 10:45:40;;;;;;;1007.70;922.58;;;22.60;99.90;;;;;;5088759;28;20221;-82
2022/08/05 10:48:34;;;;;;;1002.13;917.00;;;22.60;99.90;;;;;;5088753;28;20194;-83
2022/08/05 10:51:08;;;;;;;995.38;910.35;;;22.60;99.90;;;;;;5089406;28;20569;-84
2022/08/05 10:53:38;;;;;;;994.85;910.25;;;22.60;99.90;;;;;;5087242;28;20620;-83
2022/08/05 10:56:06;;;;;;;986.83;902.50;;;22.60;99.90;;;;;;5087085;28;20667;-83
2022/08/05 10:58:34;;;;;;;986.38;902.10;;;22.60;99.90;;;;;;5086760;28;20196;-83
2022/08/05 11:01:04;;;;;;;999.92;914.72;;;22.60;99.90;;;;;;5085576;28;20198;-83
2022/08/05 11:03:31;;;;;;;989.13;904.83;;;22.60;99.90;;;;;;5084486;28;20236;-83
2022/08/05 11:06:07;;;;;;;994.53;909.88;;;22.60;99.90;;;;;;5090234;28;20206;-84
2022/08/05 11:08:34;;;;;;;1001.95;916.90;;;22.60;99.90;;;;;;5088459;28;20197;-83
2022/08/05 11:11:33;;;;;;;989.42;904.85;;;22.60;99.90;;;;;;5087585;28;20197;-84
2022/08/05 11:14:01;;;;;;;979.05;894.80;;;22.60;99.90;;;;;;5084147;28;20254;-84
2022/08/05 11:16:30;;;;;;;990.65;906.35;;;22.60;99.90;;;;;;5089716;28;20201;-82
2022/08/05 11:19:26;;;;;;;994.28;909.65;;;22.60;99.90;;;;;;5086529;28;20707;-83
2022/08/05 11:21:53;;;;;;;982.95;898.22;;;22.60;99.90;;;;;;5088234;28;20664;-84
2022/08/05 11:24:20;;;;;;;985.78;901.10;;;22.60;99.90;;;;;;5089176;28;20213;-84
2022/08/05 11:26:47;;;;;;;996.17;911.38;;;22.60;99.90;;;;;;5087082;28;20550;-84
2022/08/05 11:29:39;;;;;;;999.92;914.85;;;22.70;99.90;;;;;;5088267;28;20198;-83
2022/08/05 11:32:27;;;;;;;988.33;903.63;;;22.70;99.90;;;;;;5092040;28;20209;-85
2022/08/05 11:34:54;;;;;;;987.40;902.83;;;22.70;99.90;;;;;;5089598;28;20285;-82
2022/08/05 11:37:58;;;;;;;997.65;912.53;;;22.70;99.90;;;;;;5091537;28;20203;-84
2022/08/05 11:40:56;;;;;;;989.75;905.05;;;22.70;99.90;;;;;;5087855;28;20670;-82
2022/08/05 11:43:23;;;;;;;994.00;908.80;;;22.70;99.90;;;;;;5086357;28;20198;-84
2022/08/05 11:45:49;;;;;;;1006.45;921.15;;;22.80;99.90;;;;;;5093364;28;20213;-83
2022/08/05 11:48:18;;;;;;;997.03;911.95;;;22.80;99.90;;;;;;5089111;28;20202;-84
2022/08/05 11:50:46;;;;;;;985.00;900.13;;;22.80;99.90;;;;;;5092555;28;20204;-84
2022/08/05 11:53:13;;;;;;;1003.60;918.20;;;22.80;99.90;;;;;;5086805;28;20731;-84
2022/08/05 11:55:53;;;;;;;992.03;907.05;;;22.80;99.90;;;;;;5091052;28;20440;-85
2022/08/05 11:58:28;;;;;;;1008.25;922.50;;;22.90;99.90;;;;;;5085564;28;20212;-88
2022/08/05 12:01:02;;;;;;;1010.45;924.72;;;22.90;99.90;;;;;;5090858;28;20645;-84
2022/08/05 12:03:30;;;;;;;993.60;908.58;;;22.90;99.90;;;;;;5090189;28;20202;-85
2022/08/05 12:06:02;;;;;;;1006.40;920.58;;;22.90;99.90;;;;;;5093059;28;20274;-85
2022/08/05 12:08:29;;;;;;;1006.63;920.85;;;23.00;99.90;;;;;;5093549;28;20206;-88
2022/08/05 12:10:58;;;;;;;1012.55;926.45;;;23.00;99.90;;;;;;5086945;28;20683;-86
2022/08/05 12:13:25;;;;;;;1006.08;920.33;;;23.00;99.90;;;;;;5090193;28;20212;-85
2022/08/05 12:15:51;;;;;;;1011.15;925.00;;;23.10;99.90;;;;;;5091271;28;20190;-85